sensor_id;sensor_type;location;lat;lon;timestamp;pressure;altitude;pressure_sealevel;temperature;humidity
76114;BME280;64845;53.086;5.834;2023-01-05T00:01:04;101279.50;;;8.27;85.62
76114;BME280;64845;53.086;5.834;2023-01-05T00:03:30;101272.38;;;8.27;85.55
76114;BME280;64845;53.086;5.834;2023-01-05T00:06:13;101275.03;;;8.29;85.50
76114;BME280;64845;53.086;5.834;2023-01-05T00:08:39;101280.28;;;8.30;85.57
76114;BME280;64845;53.086;5.834;2023-01-05T00:11:08;101280.25;;;8.34;85.75
76114;BME280;64845;53.086;5.834;2023-01-05T00:13:52;101289.13;;;8.32;85.96
76114;BME280;64845;53.086;5.834;2023-01-05T00:16:36;101286.41;;;8.36;85.60
76114;BME280;64845;53.086;5.834;2023-01-05T00:19:19;101289.00;;;8.37;85.75
76114;BME280;64845;53.086;5.834;2023-01-05T00:22:24;101286.34;;;8.39;85.50
76114;BME280;64845;53.086;5.834;2023-01-05T00:27:32;101288.09;;;8.38;85.54
76114;BME280;64845;53.086;5.834;2023-01-05T00:29:58;101285.44;;;8.40;85.34
76114;BME280;64845;53.086;5.834;2023-01-05T00:32:25;101272.06;;;8.41;85.27
76114;BME280;64845;53.086;5.834;2023-01-05T00:34:52;101275.59;;;8.43;85.41
76114;BME280;64845;53.086;5.834;2023-01-05T00:37:21;101271.13;;;8.44;85.66
76114;BME280;64845;53.086;5.834;2023-01-05T00:39:47;101294.16;;;8.45;85.50
76114;BME280;64845;53.086;5.834;2023-01-05T00:42:12;101273.72;;;8.47;85.25
76114;BME280;64845;53.086;5.834;2023-01-05T00:44:37;101295.88;;;8.51;85.03
76114;BME280;64845;53.086;5.834;2023-01-05T00:47:03;101301.13;;;8.52;84.93
76114;BME280;64845;53.086;5.834;2023-01-05T00:49:28;101315.28;;;8.54;84.98
76114;BME280;64845;53.086;5.834;2023-01-05T00:51:54;101294.00;;;8.54;85.11
76114;BME280;64845;53.086;5.834;2023-01-05T00:54:19;101307.25;;;8.56;84.81
76114;BME280;64845;53.086;5.834;2023-01-05T00:56:46;101309.00;;;8.57;85.01
76114;BME280;64845;53.086;5.834;2023-01-05T00:59:14;101306.41;;;8.55;84.94
76114;BME280;64845;53.086;5.834;2023-01-05T01:01:39;101301.06;;;8.55;84.61
76114;BME280;64845;53.086;5.834;2023-01-05T01:04:04;101318.81;;;8.55;84.53
76114;BME280;64845;53.086;5.834;2023-01-05T01:06:30;101316.16;;;8.55;84.83
76114;BME280;64845;53.086;5.834;2023-01-05T01:08:57;101318.84;;;8.53;84.35
76114;BME280;64845;53.086;5.834;2023-01-05T01:11:23;101315.28;;;8.54;84.23
76114;BME280;64845;53.086;5.834;2023-01-05T01:13:48;101322.44;;;8.52;84.25
76114;BME280;64845;53.086;5.834;2023-01-05T01:16:14;101324.22;;;8.52;84.39
76114;BME280;64845;53.086;5.834;2023-01-05T01:18:41;101319.81;;;8.51;84.39
76114;BME280;64845;53.086;5.834;2023-01-05T01:21:07;101322.47;;;8.51;84.25
76114;BME280;64845;53.086;5.834;2023-01-05T01:23:33;101319.84;;;8.49;84.07
76114;BME280;64845;53.086;5.834;2023-01-05T01:26:11;101317.16;;;8.49;83.87
76114;BME280;64845;53.086;5.834;2023-01-05T01:28:37;101330.47;;;8.51;83.87
76114;BME280;64845;53.086;5.834;2023-01-05T01:31:03;101319.81;;;8.51;84.18
76114;BME280;64845;53.086;5.834;2023-01-05T01:33:29;101325.13;;;8.51;84.20
76114;BME280;64845;53.086;5.834;2023-01-05T01:35:55;101322.50;;;8.47;83.95
76114;BME280;64845;53.086;5.834;2023-01-05T01:38:21;101327.84;;;8.46;83.75
76114;BME280;64845;53.086;5.834;2023-01-05T01:40:47;101327.84;;;8.46;83.85
76114;BME280;64845;53.086;5.834;2023-01-05T01:43:16;101341.19;;;8.44;84.01
76114;BME280;64845;53.086;5.834;2023-01-05T01:45:42;101344.72;;;8.45;84.11
76114;BME280;64845;53.086;5.834;2023-01-05T01:48:10;101359.78;;;8.46;83.79
76114;BME280;64845;53.086;5.834;2023-01-05T01:50:44;101358.91;;;8.49;83.55
76114;BME280;64845;53.086;5.834;2023-01-05T01:53:20;101377.53;;;8.49;83.58
76114;BME280;64845;53.086;5.834;2023-01-05T01:55:48;101361.50;;;8.50;83.78
76114;BME280;64845;53.086;5.834;2023-01-05T01:58:16;101368.63;;;8.50;83.36
76114;BME280;64845;53.086;5.834;2023-01-05T02:00:44;101383.69;;;8.51;83.47
76114;BME280;64845;53.086;5.834;2023-01-05T02:03:10;101358.00;;;8.48;83.36
76114;BME280;64845;53.086;5.834;2023-01-05T02:05:36;101385.53;;;8.45;83.29
76114;BME280;64845;53.086;5.834;2023-01-05T02:08:03;101385.53;;;8.45;83.18
76114;BME280;64845;53.086;5.834;2023-01-05T02:13:31;101378.47;;;8.44;83.46
76114;BME280;64845;53.086;5.834;2023-01-05T02:21:06;101382.22;;;8.34;83.82
76114;BME280;64845;53.086;5.834;2023-01-05T02:23:50;101400.97;;;8.28;83.85
76114;BME280;64845;53.086;5.834;2023-01-05T02:29:40;101408.13;;;8.24;83.80
76114;BME280;64845;53.086;5.834;2023-01-05T02:32:21;101403.69;;;8.25;83.93
76114;BME280;64845;53.086;5.834;2023-01-05T02:37:48;101411.78;;;8.20;84.10
76114;BME280;64845;53.086;5.834;2023-01-05T02:40:23;101404.75;;;8.16;83.96
76114;BME280;64845;53.086;5.834;2023-01-05T02:42:52;101399.50;;;8.13;84.48
76114;BME280;64845;53.086;5.834;2023-01-05T02:45:21;101384.44;;;8.12;84.17
76114;BME280;64845;53.086;5.834;2023-01-05T02:47:47;101399.53;;;8.11;84.29
76114;BME280;64845;53.086;5.834;2023-01-05T02:52:57;101408.38;;;8.13;84.55
76114;BME280;64845;53.086;5.834;2023-01-05T02:55:45;101418.91;;;8.16;84.46
76114;BME280;64845;53.086;5.834;2023-01-05T02:58:17;101406.50;;;8.17;84.71
76114;BME280;64845;53.086;5.834;2023-01-05T03:00:45;101409.13;;;8.19;84.55
76114;BME280;64845;53.086;5.834;2023-01-05T03:03:20;101412.69;;;8.19;84.61
76114;BME280;64845;53.086;5.834;2023-01-05T03:05:53;101409.13;;;8.19;84.88
76114;BME280;64845;53.086;5.834;2023-01-05T03:08:22;101406.47;;;8.20;84.67
76114;BME280;64845;53.086;5.834;2023-01-05T03:11:02;101396.72;;;8.19;84.54
76114;BME280;64845;53.086;5.834;2023-01-05T03:13:50;101414.50;;;8.17;84.70
76114;BME280;64845;53.086;5.834;2023-01-05T03:16:23;101411.84;;;8.15;84.60
76114;BME280;64845;53.086;5.834;2023-01-05T03:18:52;101412.75;;;8.16;84.99
76114;BME280;64845;53.086;5.834;2023-01-05T03:21:38;101406.50;;;8.17;84.97
76114;BME280;64845;53.086;5.834;2023-01-05T03:24:23;101421.56;;;8.18;84.87
76114;BME280;64845;53.086;5.834;2023-01-05T03:27:07;101425.94;;;8.21;84.79
76114;BME280;64845;53.086;5.834;2023-01-05T03:29:53;101422.38;;;8.22;84.81
76114;BME280;64845;53.086;5.834;2023-01-05T03:32:44;101426.84;;;8.21;84.73
76114;BME280;64845;53.086;5.834;2023-01-05T03:35:32;101433.94;;;8.21;84.76
76114;BME280;64845;53.086;5.834;2023-01-05T03:40:42;101438.28;;;8.25;84.89
76114;BME280;64845;53.086;5.834;2023-01-05T03:43:08;101439.13;;;8.27;84.98
76114;BME280;64845;53.086;5.834;2023-01-05T03:45:40;101431.09;;;8.28;85.10
76114;BME280;64845;53.086;5.834;2023-01-05T03:48:06;101429.25;;;8.34;85.07
76114;BME280;64845;53.086;5.834;2023-01-05T03:50:33;101438.97;;;8.35;84.67
76114;BME280;64845;53.086;5.834;2023-01-05T03:52:59;101436.31;;;8.35;84.90
76114;BME280;64845;53.086;5.834;2023-01-05T03:55:24;101445.09;;;8.38;84.72
76114;BME280;64845;53.086;5.834;2023-01-05T03:57:49;101449.53;;;8.39;84.83
76114;BME280;64845;53.086;5.834;2023-01-05T04:00:15;101446.84;;;8.41;84.58
76114;BME280;64845;53.086;5.834;2023-01-05T04:02:40;101446.84;;;8.41;84.36
76114;BME280;64845;53.086;5.834;2023-01-05T04:05:06;101444.19;;;8.39;84.35
76114;BME280;64845;53.086;5.834;2023-01-05T04:07:31;101438.03;;;8.39;84.46
76114;BME280;64845;53.086;5.834;2023-01-05T04:09:57;101429.19;;;8.35;84.55
76114;BME280;64845;53.086;5.834;2023-01-05T04:12:22;101426.63;;;8.32;84.51
76114;BME280;64845;53.086;5.834;2023-01-05T04:14:47;101442.66;;;8.29;84.47
76114;BME280;64845;53.086;5.834;2023-01-05T04:17:13;101446.16;;;8.29;84.68
76114;BME280;64845;53.086;5.834;2023-01-05T04:19:38;101451.53;;;8.26;84.16
76114;BME280;64845;53.086;5.834;2023-01-05T04:22:04;101441.81;;;8.25;84.67
76114;BME280;64845;53.086;5.834;2023-01-05T04:24:29;101456.00;;;8.26;84.26
76114;BME280;64845;53.086;5.834;2023-01-05T04:26:54;101444.47;;;8.27;84.63
76114;BME280;64845;53.086;5.834;2023-01-05T04:29:20;101461.28;;;8.29;84.44
76114;BME280;64845;53.086;5.834;2023-01-05T04:31:45;101459.47;;;8.29;84.49
76114;BME280;64845;53.086;5.834;2023-01-05T04:34:10;101475.44;;;8.31;84.69
76114;BME280;64845;53.086;5.834;2023-01-05T04:36:36;101455.91;;;8.32;84.25
76114;BME280;64845;53.086;5.834;2023-01-05T04:39:01;101469.19;;;8.32;84.57
76114;BME280;64845;53.086;5.834;2023-01-05T04:41:26;101475.38;;;8.32;84.54
76114;BME280;64845;53.086;5.834;2023-01-05T04:43:52;101470.91;;;8.35;84.34
76114;BME280;64845;53.086;5.834;2023-01-05T04:46:17;101465.59;;;8.35;84.54
76114;BME280;64845;53.086;5.834;2023-01-05T04:48:42;101468.25;;;8.35;84.35
76114;BME280;64845;53.086;5.834;2023-01-05T04:51:08;101477.09;;;8.35;84.11
76114;BME280;64845;53.086;5.834;2023-01-05T04:53:33;101500.13;;;8.36;84.14
76114;BME280;64845;53.086;5.834;2023-01-05T04:55:59;101480.66;;;8.36;84.24
76114;BME280;64845;53.086;5.834;2023-01-05T04:58:24;101487.72;;;8.37;84.52
76114;BME280;64845;53.086;5.834;2023-01-05T05:00:50;101492.16;;;8.36;84.10
76114;BME280;64845;53.086;5.834;2023-01-05T05:03:15;101485.06;;;8.37;84.34
76114;BME280;64845;53.086;5.834;2023-01-05T05:05:41;101498.31;;;8.38;84.32
76114;BME280;64845;53.086;5.834;2023-01-05T05:08:06;101488.59;;;8.39;84.45
76114;BME280;64845;53.086;5.834;2023-01-05T05:10:31;101502.72;;;8.41;84.38
76114;BME280;64845;53.086;5.834;2023-01-05T05:12:57;101514.25;;;8.41;84.20
76114;BME280;64845;53.086;5.834;2023-01-05T05:15:23;101521.31;;;8.42;84.36
76114;BME280;64845;53.086;5.834;2023-01-05T05:17:48;101517.75;;;8.43;84.43
76114;BME280;64845;53.086;5.834;2023-01-05T05:20:14;101515.09;;;8.43;84.18
76114;BME280;64845;53.086;5.834;2023-01-05T05:22:39;101507.97;;;8.44;84.11
76114;BME280;64845;53.086;5.834;2023-01-05T05:25:05;101530.16;;;8.44;84.43
76114;BME280;64845;53.086;5.834;2023-01-05T05:27:31;101524.88;;;8.43;83.94
76114;BME280;64845;53.086;5.834;2023-01-05T05:29:56;101526.66;;;8.42;84.42
76114;BME280;64845;53.086;5.834;2023-01-05T05:32:22;101533.72;;;8.43;84.41
76114;BME280;64845;53.086;5.834;2023-01-05T05:34:47;101535.56;;;8.40;84.25
76114;BME280;64845;53.086;5.834;2023-01-05T05:37:12;101537.34;;;8.39;84.01
76114;BME280;64845;53.086;5.834;2023-01-05T05:39:38;101548.00;;;8.39;84.55
76114;BME280;64845;53.086;5.834;2023-01-05T05:42:03;101543.56;;;8.40;84.16
76114;BME280;64845;53.086;5.834;2023-01-05T05:44:29;101541.81;;;8.39;84.60
76114;BME280;64845;53.086;5.834;2023-01-05T05:46:54;101543.56;;;8.38;84.43
76114;BME280;64845;53.086;5.834;2023-01-05T05:49:19;101554.22;;;8.38;84.23
76114;BME280;64845;53.086;5.834;2023-01-05T05:51:45;101555.09;;;8.39;84.25
76114;BME280;64845;53.086;5.834;2023-01-05T05:54:10;101555.09;;;8.39;84.30
76114;BME280;64845;53.086;5.834;2023-01-05T05:56:35;101557.78;;;8.39;84.21
76114;BME280;64845;53.086;5.834;2023-01-05T05:59:01;101569.28;;;8.39;84.46
76114;BME280;64845;53.086;5.834;2023-01-05T06:01:26;101565.75;;;8.39;84.14
76114;BME280;64845;53.086;5.834;2023-01-05T06:03:51;101564.00;;;8.36;84.26
76114;BME280;64845;53.086;5.834;2023-01-05T06:06:17;101576.41;;;8.37;84.23
76114;BME280;64845;53.086;5.834;2023-01-05T06:08:42;101579.06;;;8.37;84.51
76114;BME280;64845;53.086;5.834;2023-01-05T06:11:07;101576.41;;;8.37;84.45
76114;BME280;64845;53.086;5.834;2023-01-05T06:13:33;101582.63;;;8.38;84.64
76114;BME280;64845;53.086;5.834;2023-01-05T06:15:58;101595.88;;;8.39;84.44
76114;BME280;64845;53.086;5.834;2023-01-05T06:18:24;101588.81;;;8.38;84.12
76114;BME280;64845;53.086;5.834;2023-01-05T06:20:49;101603.00;;;8.39;84.08
76114;BME280;64845;53.086;5.834;2023-01-05T06:23:15;101602.06;;;8.41;84.28
76114;BME280;64845;53.086;5.834;2023-01-05T06:25:40;101604.72;;;8.41;83.95
76114;BME280;64845;53.086;5.834;2023-01-05T06:28:06;101605.59;;;8.43;84.02
76114;BME280;64845;53.086;5.834;2023-01-05T06:30:32;101610.00;;;8.44;84.17
76114;BME280;64845;53.086;5.834;2023-01-05T06:32:57;101618.00;;;8.44;84.10
76114;BME280;64845;53.086;5.834;2023-01-05T06:35:23;101614.44;;;8.44;84.39
76114;BME280;64845;53.086;5.834;2023-01-05T06:37:48;101620.66;;;8.44;84.43
76114;BME280;64845;53.086;5.834;2023-01-05T06:40:14;101625.06;;;8.45;84.05
76114;BME280;64845;53.086;5.834;2023-01-05T06:42:41;101629.50;;;8.45;84.05
76114;BME280;64845;53.086;5.834;2023-01-05T06:45:09;101632.16;;;8.45;84.01
76114;BME280;64845;53.086;5.834;2023-01-05T06:47:36;101623.31;;;8.44;84.16
76114;BME280;64845;53.086;5.834;2023-01-05T06:50:02;101628.63;;;8.44;84.11
76114;BME280;64845;53.086;5.834;2023-01-05T06:52:27;101626.88;;;8.43;84.12
76114;BME280;64845;53.086;5.834;2023-01-05T06:54:56;101623.31;;;8.44;83.60
76114;BME280;64845;53.086;5.834;2023-01-05T06:57:41;101620.69;;;8.43;83.79
76114;BME280;64845;53.086;5.834;2023-01-05T07:00:09;101626.03;;;8.41;83.49
76114;BME280;64845;53.086;5.834;2023-01-05T07:02:35;101636.66;;;8.41;83.93
76114;BME280;64845;53.086;5.834;2023-01-05T07:05:01;101645.59;;;8.39;83.98
76114;BME280;64845;53.086;5.834;2023-01-05T07:07:26;101640.31;;;8.36;83.87
76114;BME280;64845;53.086;5.834;2023-01-05T07:09:52;101655.47;;;8.32;83.80
76114;BME280;64845;53.086;5.834;2023-01-05T07:12:17;101649.28;;;8.28;83.67
76114;BME280;64845;53.086;5.834;2023-01-05T07:14:42;101659.13;;;8.25;83.65
76114;BME280;64845;53.086;5.834;2023-01-05T07:17:08;101654.69;;;8.24;83.93
76114;BME280;64845;53.086;5.834;2023-01-05T07:19:33;101665.38;;;8.22;84.01
76114;BME280;64845;53.086;5.834;2023-01-05T07:21:59;101665.38;;;8.22;83.90
76114;BME280;64845;53.086;5.834;2023-01-05T07:24:24;101667.13;;;8.22;83.76
76114;BME280;64845;53.086;5.834;2023-01-05T07:26:49;101655.59;;;8.23;83.94
76114;BME280;64845;53.086;5.834;2023-01-05T07:29:15;101662.72;;;8.21;84.13
76114;BME280;64845;53.086;5.834;2023-01-05T07:31:41;101660.06;;;8.21;84.22
76114;BME280;64845;53.086;5.834;2023-01-05T07:34:08;101661.88;;;8.19;83.91
76114;BME280;64845;53.086;5.834;2023-01-05T07:36:33;101671.59;;;8.20;83.94
76114;BME280;64845;53.086;5.834;2023-01-05T07:38:58;101668.94;;;8.20;84.31
76114;BME280;64845;53.086;5.834;2023-01-05T07:41:24;101669.84;;;8.20;84.02
76114;BME280;64845;53.086;5.834;2023-01-05T07:43:49;101674.25;;;8.21;84.02
76114;BME280;64845;53.086;5.834;2023-01-05T07:46:15;101674.25;;;8.21;84.17
76114;BME280;64845;53.086;5.834;2023-01-05T07:48:41;101680.44;;;8.22;83.89
76114;BME280;64845;53.086;5.834;2023-01-05T07:51:06;101691.97;;;8.22;83.96
76114;BME280;64845;53.086;5.834;2023-01-05T07:53:34;101680.44;;;8.22;84.23
76114;BME280;64845;53.086;5.834;2023-01-05T07:56:02;101689.28;;;8.24;83.92
76114;BME280;64845;53.086;5.834;2023-01-05T07:58:28;101691.94;;;8.24;84.39
76114;BME280;64845;53.086;5.834;2023-01-05T08:00:54;101693.69;;;8.25;84.13
76114;BME280;64845;53.086;5.834;2023-01-05T08:03:20;101706.09;;;8.26;83.84
76114;BME280;64845;53.086;5.834;2023-01-05T08:05:46;101718.50;;;8.27;83.99
76114;BME280;64845;53.086;5.834;2023-01-05T08:08:12;101716.72;;;8.27;83.95
76114;BME280;64845;53.086;5.834;2023-01-05T08:10:38;101715.81;;;8.28;84.00
76114;BME280;64845;53.086;5.834;2023-01-05T08:13:05;101717.59;;;8.28;84.05
76114;BME280;64845;53.086;5.834;2023-01-05T08:15:51;101737.09;;;8.30;83.84
76114;BME280;64845;53.086;5.834;2023-01-05T08:18:17;101745.06;;;8.30;83.93
76114;BME280;64845;53.086;5.834;2023-01-05T08:20:49;101742.41;;;8.30;83.80
76114;BME280;64845;53.086;5.834;2023-01-05T08:23:15;101740.66;;;8.29;84.09
76114;BME280;64845;53.086;5.834;2023-01-05T08:25:40;101747.75;;;8.30;83.82
76114;BME280;64845;53.086;5.834;2023-01-05T08:28:05;101739.75;;;8.30;83.70
76114;BME280;64845;53.086;5.834;2023-01-05T08:30:31;101743.28;;;8.30;83.76
76114;BME280;64845;53.086;5.834;2023-01-05T08:32:56;101759.25;;;8.32;83.90
76114;BME280;64845;53.086;5.834;2023-01-05T08:35:22;101754.81;;;8.29;84.03
76114;BME280;64845;53.086;5.834;2023-01-05T08:37:47;101760.16;;;8.31;83.84
76114;BME280;64845;53.086;5.834;2023-01-05T08:40:12;101773.41;;;8.32;83.67
76114;BME280;64845;53.086;5.834;2023-01-05T08:42:38;101772.56;;;8.30;83.92
76114;BME280;64845;53.086;5.834;2023-01-05T08:45:05;101776.09;;;8.31;84.01
76114;BME280;64845;53.086;5.834;2023-01-05T08:47:30;101774.34;;;8.30;83.83
76114;BME280;64845;53.086;5.834;2023-01-05T08:49:56;101773.44;;;8.31;83.87
76114;BME280;64845;53.086;5.834;2023-01-05T08:52:21;101778.78;;;8.31;83.85
76114;BME280;64845;53.086;5.834;2023-01-05T08:54:47;101794.69;;;8.32;83.79
76114;BME280;64845;53.086;5.834;2023-01-05T08:57:13;101806.25;;;8.33;84.00
76114;BME280;64845;53.086;5.834;2023-01-05T08:59:39;101794.66;;;8.34;84.09
76114;BME280;64845;53.086;5.834;2023-01-05T09:02:05;101799.09;;;8.35;83.92
76114;BME280;64845;53.086;5.834;2023-01-05T09:04:31;101797.28;;;8.37;83.82
76114;BME280;64845;53.086;5.834;2023-01-05T09:06:56;101808.84;;;8.38;83.96
76114;BME280;64845;53.086;5.834;2023-01-05T09:09:22;101818.56;;;8.39;84.11
76114;BME280;64845;53.086;5.834;2023-01-05T09:11:49;101822.09;;;8.39;84.17
76114;BME280;64845;53.086;5.834;2023-01-05T09:14:14;101842.50;;;8.40;83.79
76114;BME280;64845;53.086;5.834;2023-01-05T09:16:39;101838.06;;;8.41;83.95
76114;BME280;64845;53.086;5.834;2023-01-05T09:19:05;101832.75;;;8.41;83.92
76114;BME280;64845;53.086;5.834;2023-01-05T09:21:31;101853.13;;;8.42;83.62
76114;BME280;64845;53.086;5.834;2023-01-05T09:23:56;101850.47;;;8.42;83.76
76114;BME280;64845;53.086;5.834;2023-01-05T09:26:22;101856.69;;;8.41;83.63
76114;BME280;64845;53.086;5.834;2023-01-05T09:28:47;101857.56;;;8.41;83.63
76114;BME280;64845;53.086;5.834;2023-01-05T09:31:15;101854.91;;;8.41;83.73
76114;BME280;64845;53.086;5.834;2023-01-05T09:33:41;101852.25;;;8.41;83.72
76114;BME280;64845;53.086;5.834;2023-01-05T09:36:07;101851.38;;;8.41;84.04
76114;BME280;64845;53.086;5.834;2023-01-05T09:38:33;101863.78;;;8.42;83.81
76114;BME280;64845;53.086;5.834;2023-01-05T09:43:50;101853.97;;;8.44;84.04
76114;BME280;64845;53.086;5.834;2023-01-05T09:46:21;101857.50;;;8.46;83.65
76114;BME280;64845;53.086;5.834;2023-01-05T09:48:54;101863.72;;;8.46;84.08
76114;BME280;64845;53.086;5.834;2023-01-05T09:51:20;101868.13;;;8.46;83.73
76114;BME280;64845;53.086;5.834;2023-01-05T09:53:46;101867.28;;;8.49;84.04
76114;BME280;64845;53.086;5.834;2023-01-05T09:58:45;101861.00;;;8.51;84.04
76114;BME280;64845;53.086;5.834;2023-01-05T10:01:14;101870.75;;;8.52;83.86
76114;BME280;64845;53.086;5.834;2023-01-05T10:03:59;101864.50;;;8.55;83.62
76114;BME280;64845;53.086;5.834;2023-01-05T10:06:28;101870.69;;;8.57;84.06
76114;BME280;64845;53.086;5.834;2023-01-05T10:08:57;101869.78;;;8.58;84.02
76114;BME280;64845;53.086;5.834;2023-01-05T10:14:41;101878.59;;;8.63;83.48
76114;BME280;64845;53.086;5.834;2023-01-05T10:17:17;101878.56;;;8.65;83.80
76114;BME280;64845;53.086;5.834;2023-01-05T10:19:44;101873.25;;;8.66;83.52
76114;BME280;64845;53.086;5.834;2023-01-05T10:30:44;101896.19;;;8.73;83.49
76114;BME280;64845;53.086;5.834;2023-01-05T10:38:32;101905.94;;;8.76;83.84
76114;BME280;64845;53.086;5.834;2023-01-05T10:43:51;101905.03;;;8.75;83.84
76114;BME280;64845;53.086;5.834;2023-01-05T10:46:19;101909.47;;;8.76;83.66
76114;BME280;64845;53.086;5.834;2023-01-05T10:48:45;101901.50;;;8.75;83.73
76114;BME280;64845;53.086;5.834;2023-01-05T10:51:11;101897.91;;;8.77;83.81
76114;BME280;64845;53.086;5.834;2023-01-05T10:53:39;101894.38;;;8.77;83.68
76114;BME280;64845;53.086;5.834;2023-01-05T10:58:36;101888.13;;;8.81;83.65
76114;BME280;64845;53.086;5.834;2023-01-05T11:03:49;101897.84;;;8.84;83.56
76114;BME280;64845;53.086;5.834;2023-01-05T11:06:28;101893.38;;;8.84;83.55
76114;BME280;64845;53.086;5.834;2023-01-05T11:09:04;101906.66;;;8.87;83.57
76114;BME280;64845;53.086;5.834;2023-01-05T11:11:30;101895.09;;;8.90;83.36
76114;BME280;64845;53.086;5.834;2023-01-05T11:13:56;101892.38;;;8.91;83.34
76114;BME280;64845;53.086;5.834;2023-01-05T11:16:26;101900.34;;;8.93;83.77
76114;BME280;64845;53.086;5.834;2023-01-05T11:19:02;101905.66;;;8.95;83.39
76114;BME280;64845;53.086;5.834;2023-01-05T11:24:00;101911.88;;;8.95;83.26
76114;BME280;64845;53.086;5.834;2023-01-05T11:26:29;101918.03;;;8.99;83.53
76114;BME280;64845;53.086;5.834;2023-01-05T11:29:01;101909.16;;;9.00;83.39
76114;BME280;64845;53.086;5.834;2023-01-05T11:36:51;101910.06;;;8.97;83.29
76114;BME280;64845;53.086;5.834;2023-01-05T11:39:24;101902.97;;;8.96;83.05
76114;BME280;64845;53.086;5.834;2023-01-05T11:42:02;101910.97;;;8.96;83.42
76114;BME280;64845;53.086;5.834;2023-01-05T11:44:29;101910.06;;;8.97;83.00
76114;BME280;64845;53.086;5.834;2023-01-05T11:46:54;101910.06;;;8.97;83.06
76114;BME280;64845;53.086;5.834;2023-01-05T11:49:20;101903.88;;;8.97;83.09
76114;BME280;64845;53.086;5.834;2023-01-05T11:51:45;101904.72;;;8.97;83.08
76114;BME280;64845;53.086;5.834;2023-01-05T11:54:33;101907.38;;;8.99;82.91
76114;BME280;64845;53.086;5.834;2023-01-05T11:59:38;101906.53;;;8.95;83.10
76114;BME280;64845;53.086;5.834;2023-01-05T12:05:23;101911.84;;;8.97;83.19
76114;BME280;64845;53.086;5.834;2023-01-05T12:07:58;101912.69;;;9.00;83.38
76114;BME280;64845;53.086;5.834;2023-01-05T12:21:22;101909.94;;;9.05;82.83
76114;BME280;64845;53.086;5.834;2023-01-05T12:24:03;101911.75;;;9.03;83.15
76114;BME280;64845;53.086;5.834;2023-01-05T12:32:26;101913.50;;;9.04;83.04
76114;BME280;64845;53.086;5.834;2023-01-05T12:37:58;101919.72;;;9.04;82.83
76114;BME280;64845;53.086;5.834;2023-01-05T12:43:33;101920.59;;;9.06;83.19
76114;BME280;64845;53.086;5.834;2023-01-05T12:48:45;101928.59;;;9.06;82.98
76114;BME280;64845;53.086;5.834;2023-01-05T12:51:27;101922.34;;;9.07;83.21
76114;BME280;64845;53.086;5.834;2023-01-05T12:54:25;101932.97;;;9.09;83.08
76114;BME280;64845;53.086;5.834;2023-01-05T12:57:09;101935.63;;;9.11;82.95
76114;BME280;64845;53.086;5.834;2023-01-05T12:59:47;101938.34;;;9.07;82.90
76114;BME280;64845;53.086;5.834;2023-01-05T13:05:02;101933.88;;;9.10;83.20
76114;BME280;64845;53.086;5.834;2023-01-05T13:07:38;101933.91;;;9.06;83.14
76114;BME280;64845;53.086;5.834;2023-01-05T13:10:35;101932.13;;;9.07;83.02
76114;BME280;64845;53.086;5.834;2023-01-05T13:13:11;101930.34;;;9.07;83.11
76114;BME280;64845;53.086;5.834;2023-01-05T13:15:48;101922.34;;;9.07;83.16
76114;BME280;64845;53.086;5.834;2023-01-05T13:18:17;101932.16;;;9.05;82.83
76114;BME280;64845;53.086;5.834;2023-01-05T13:20:55;101930.41;;;9.03;82.83
76114;BME280;64845;53.086;5.834;2023-01-05T13:23:26;101927.72;;;9.03;83.08
76114;BME280;64845;53.086;5.834;2023-01-05T13:26:06;101928.66;;;9.00;82.81
76114;BME280;64845;53.086;5.834;2023-01-05T13:28:32;101930.44;;;9.01;82.82
76114;BME280;64845;53.086;5.834;2023-01-05T13:43:11;101931.41;;;8.94;82.90
76114;BME280;64845;53.086;5.834;2023-01-05T13:51:56;101925.25;;;8.92;83.16
76114;BME280;64845;53.086;5.834;2023-01-05T13:56:51;101912.84;;;8.89;82.89
76114;BME280;64845;53.086;5.834;2023-01-05T14:01:48;101931.41;;;8.94;83.28
76114;BME280;64845;53.086;5.834;2023-01-05T14:04:24;101925.22;;;8.94;83.03
76114;BME280;64845;53.086;5.834;2023-01-05T14:07:12;101926.09;;;8.94;82.97
76114;BME280;64845;53.086;5.834;2023-01-05T14:09:42;101923.38;;;8.97;83.16
76114;BME280;64845;53.086;5.834;2023-01-05T14:20:46;101916.97;;;9.11;82.77
76114;BME280;64845;53.086;5.834;2023-01-05T14:33:51;101917.72;;;9.19;82.73
76114;BME280;64845;53.086;5.834;2023-01-05T14:36:45;101918.66;;;9.16;82.92
76114;BME280;64845;53.086;5.834;2023-01-05T14:41:56;101923.09;;;9.16;82.69
76114;BME280;64845;53.086;5.834;2023-01-05T14:44:28;101925.81;;;9.13;82.57
76114;BME280;64845;53.086;5.834;2023-01-05T14:46:55;101932.03;;;9.13;82.65
76114;BME280;64845;53.086;5.834;2023-01-05T14:49:38;101924.97;;;9.11;82.27
76114;BME280;64845;53.086;5.834;2023-01-05T14:52:15;101925.03;;;9.06;82.50
76114;BME280;64845;53.086;5.834;2023-01-05T14:57:35;101928.72;;;8.97;82.53
76114;BME280;64845;53.086;5.834;2023-01-05T15:00:06;101934.06;;;8.94;82.51
76114;BME280;64845;53.086;5.834;2023-01-05T15:03:16;101934.19;;;8.88;82.18
76114;BME280;64845;53.086;5.834;2023-01-05T15:05:53;101935.16;;;8.81;82.65
76114;BME280;64845;53.086;5.834;2023-01-05T15:08:38;101939.69;;;8.74;82.55
76114;BME280;64845;53.086;5.834;2023-01-05T15:27:56;101937.34;;;8.51;83.04
76114;BME280;64845;53.086;5.834;2023-01-05T15:30:36;101927.59;;;8.48;83.03
76114;BME280;64845;53.086;5.834;2023-01-05T15:33:34;101930.25;;;8.46;82.78
76114;BME280;64845;53.086;5.834;2023-01-05T15:36:03;101933.81;;;8.44;83.08
76114;BME280;64845;53.086;5.834;2023-01-05T15:38:30;101941.84;;;8.42;83.13
76114;BME280;64845;53.086;5.834;2023-01-05T15:41:07;101940.97;;;8.42;82.98
76114;BME280;64845;53.086;5.834;2023-01-05T15:43:36;101934.78;;;8.40;82.88
76114;BME280;64845;53.086;5.834;2023-01-05T15:46:04;101927.69;;;8.37;83.21
76114;BME280;64845;53.086;5.834;2023-01-05T15:48:51;101926.81;;;8.35;83.27
76114;BME280;64845;53.086;5.834;2023-01-05T15:51:23;101924.19;;;8.34;82.95